Stinesville, IN

7:20 PM EDT on August 03, 2015 (GMT -0400)
GosportINWX | Change Station
CLOSE
Current Station
Personal Weather Station
Location: Gosport, IN
Elevation: 751 ft
Nearby Weather Stations

Elev 751 ft 39.30 °N, 86.70 °W | Updated 4 seconds ago

Clear
Clear
82.9 °F
Feels Like 85 °F
N
5.6
Wind Variable Wind from West
Gusts 7.8 mph

Today
High -- | Low -- °F
--% Chance of Precip.
Yesterday
High -- | Low -- °F
Precip. -- in
6:48 AM 8:56 PM
Waning Gibbous, 83% visible
Pressure 29.84 in
Visibility 10.0 miles
Clouds Clear
Heat Index 85 °F
Dew Point 67 °F
Humidity 58%
Rainfall 0.00 in
Snow Depth Not available.
UV 2 out of 12
Pollen 7.40 out of 12
Air Quality Not available.
Flu Activity Not available.
METAR KBMG 032253Z 28006KT 10SM CLR 29/19 A2986 RMK AO2 SLP103 T02940194

More Conditions Fewer Conditions

Pressure 29.84 in
Visibility 10.0 miles
Clouds Clear
Heat Index 85 °F
Dew Point 67 °F
Humidity 58%
Rainfall 0.00 in
Snow Depth Not available.
UV 2 out of 12
Pollen 7.40 out of 12
Air Quality Not available.
Flu Activity Not available.
METAR KBMG 032253Z 28006KT 10SM CLR 29/19 A2986 RMK AO2 SLP103 T02940194

More Conditions Fewer Conditions

10-Day Weather Forecast

Almanac

Astronomy

Aug. 03, 2015 Rise Set
Actual Time 6:48 AM EDT 8:56 PM EDT
Civil Twilight 6:18 AM EDT 9:26 PM EDT
Nautical Twilight 5:42 AM EDT 10:02 PM EDT
Astronomical Twilight 5:02 AM EDT 10:42 PM EDT
Moon 11:02 PM EDT 10:31 AM EDT
Length of Visible Light 15h 07m
Length of Day
14h 08m
Tomorrow will be 2m 0s shorter.
Waning Gibbous, 83% of the Moon is Illuminated
Today
Waning Gibbous
Aug 6
Last Quarter
Aug 14
New
Aug 22
First Quarter
Aug 29
Full

Today's Extremes

State Highs State Lows

Community

WunderPhotos

Upload Photos

1,843,786 photos uploaded!

Nearby

Snow Depth

Station Depth Elevation
No new snow has been reported.

Earthquake Activity

City Distance Mag. Time & Date
No recent earthquake activity has been reported nearby.
Minimum magnitude displayed is 2.5.

Coastal Water Temperatures

Place Temperature
No Stations Reporting

Nearby Weather Stations